createdAt,value
2023-11-17T00:01:40.174Z,5.82
2023-11-17T00:04:07.247Z,5.30
2023-11-17T00:06:34.633Z,5.57
2023-11-17T00:09:02.376Z,5.05
2023-11-17T00:11:29.557Z,4.72
2023-11-17T00:13:56.324Z,5.25
2023-11-17T00:16:24.044Z,4.40
2023-11-17T00:18:53.484Z,5.85
2023-11-17T00:21:20.523Z,5.45
2023-11-17T00:23:47.322Z,5.28
2023-11-17T00:26:14.236Z,6.00
2023-11-17T00:28:41.290Z,5.60
2023-11-17T00:31:08.944Z,5.90
2023-11-17T00:33:36.029Z,5.75
2023-11-17T00:36:03.106Z,5.53
2023-11-17T00:38:32.703Z,5.68
2023-11-17T00:41:00.961Z,5.82
2023-11-17T00:43:28.452Z,5.50
2023-11-17T00:45:59.873Z,5.20
2023-11-17T00:48:28.548Z,5.10
2023-11-17T00:50:59.761Z,5.45
2023-11-17T00:53:27.548Z,5.22
2023-11-17T00:55:54.681Z,5.40
2023-11-17T00:58:22.561Z,5.38
2023-11-17T01:00:49.441Z,5.57
2023-11-17T01:03:17.383Z,5.95
2023-11-17T01:05:44.211Z,6.20
2023-11-17T01:08:11.646Z,5.70
2023-11-17T01:10:39.052Z,5.40
2023-11-17T01:13:07.256Z,5.60
2023-11-17T01:15:35.978Z,4.90
2023-11-17T01:18:08.796Z,5.35
2023-11-17T01:20:37.028Z,5.20
2023-11-17T01:23:04.572Z,5.63
2023-11-17T01:25:34.732Z,5.57
2023-11-17T01:28:03.530Z,6.10
2023-11-17T01:30:31.513Z,6.15
2023-11-17T01:32:58.712Z,6.20
2023-11-17T01:35:25.946Z,5.75
2023-11-17T01:37:52.723Z,5.32
2023-11-17T01:40:21.132Z,5.18
2023-11-17T01:42:48.109Z,4.97
2023-11-17T01:45:15.809Z,5.20
2023-11-17T01:47:43.917Z,5.10
2023-11-17T01:50:13.898Z,5.68
2023-11-17T01:52:42.058Z,5.18
2023-11-17T01:55:09.727Z,5.07
2023-11-17T01:57:40.024Z,4.97
2023-11-17T02:00:15.040Z,5.03
2023-11-17T02:02:48.924Z,5.57
2023-11-17T02:05:20.346Z,5.75
2023-11-17T02:07:54.823Z,5.72
2023-11-17T02:10:57.836Z,5.80
2023-11-17T02:13:39.605Z,5.75
2023-11-17T02:16:12.841Z,5.55
2023-11-17T02:18:43.782Z,6.40
2023-11-17T02:21:15.947Z,6.00
2023-11-17T02:23:44.018Z,6.20
2023-11-17T02:26:17.383Z,5.78
2023-11-17T02:29:01.558Z,6.40
2023-11-17T02:31:37.334Z,6.18
2023-11-17T02:34:07.625Z,6.13
2023-11-17T02:36:34.863Z,6.45
2023-11-17T02:39:28.401Z,5.90
2023-11-17T02:41:59.655Z,6.32
2023-11-17T02:44:31.156Z,6.07
2023-11-17T02:47:04.156Z,7.20
2023-11-17T02:49:43.926Z,6.60
2023-11-17T02:52:25.429Z,6.75
2023-11-17T02:54:54.136Z,6.57
2023-11-17T02:57:25.372Z,6.43
2023-11-17T02:59:52.954Z,6.20
2023-11-17T03:02:20.858Z,6.13
2023-11-17T03:04:55.458Z,6.78
2023-11-17T03:07:22.910Z,6.07
2023-11-17T03:09:53.368Z,6.28
2023-11-17T03:12:21.154Z,6.17
2023-11-17T03:14:47.968Z,5.90
2023-11-17T03:17:14.765Z,6.28
2023-11-17T03:19:41.989Z,5.75
2023-11-17T03:22:09.048Z,5.57
2023-11-17T03:24:36.058Z,5.68
2023-11-17T03:27:04.115Z,5.90
2023-11-17T03:29:33.072Z,5.75
2023-11-17T03:32:00.910Z,5.95
2023-11-17T03:34:30.948Z,5.78
2023-11-17T03:37:02.774Z,6.35
2023-11-17T03:39:42.662Z,5.40
2023-11-17T03:42:14.260Z,5.82
2023-11-17T03:44:41.080Z,5.90
2023-11-17T03:47:08.175Z,5.95
2023-11-17T03:49:35.479Z,6.30
2023-11-17T03:52:05.908Z,6.10
2023-11-17T03:54:34.018Z,5.90
2023-11-17T03:57:02.960Z,6.43
2023-11-17T03:59:31.245Z,6.32
2023-11-17T04:01:59.254Z,6.25
2023-11-17T04:04:27.332Z,6.95
2023-11-17T04:06:56.379Z,6.40
2023-11-17T04:09:24.599Z,7.07
2023-11-17T04:11:55.639Z,7.30
2023-11-17T04:14:23.656Z,7.60
2023-11-17T04:16:51.734Z,7.13
2023-11-17T04:19:22.535Z,7.78
2023-11-17T04:21:50.589Z,8.10
2023-11-17T04:24:18.418Z,8.60
2023-11-17T04:26:45.852Z,8.85
2023-11-17T04:29:12.896Z,8.93
2023-11-17T04:31:39.757Z,8.50
2023-11-17T04:34:07.020Z,9.32
2023-11-17T04:36:34.220Z,9.43
2023-11-17T04:39:02.541Z,10.45
2023-11-17T04:41:32.955Z,11.23
2023-11-17T04:44:00.498Z,10.57
2023-11-17T04:46:27.717Z,11.25
2023-11-17T04:48:54.682Z,11.23
2023-11-17T04:51:21.409Z,10.75
2023-11-17T04:53:48.260Z,11.00
2023-11-17T04:56:15.250Z,11.00
2023-11-17T04:58:42.031Z,10.55
2023-11-17T05:01:09.001Z,11.05
2023-11-17T05:03:36.882Z,12.07
2023-11-17T05:06:07.514Z,11.27
2023-11-17T05:08:36.840Z,11.98
2023-11-17T05:11:05.515Z,12.80
2023-11-17T05:13:33.398Z,12.45
2023-11-17T05:16:04.500Z,12.68
2023-11-17T05:18:31.626Z,13.05
2023-11-17T05:20:58.489Z,13.48
2023-11-17T05:23:25.246Z,13.52
2023-11-17T05:25:52.089Z,14.63
2023-11-17T05:28:19.474Z,14.98
2023-11-17T05:30:47.333Z,16.48
2023-11-17T05:33:19.379Z,15.43
2023-11-17T05:35:46.806Z,15.82
2023-11-17T05:38:13.574Z,16.20
2023-11-17T05:40:41.640Z,16.17
2023-11-17T05:43:08.774Z,16.85
2023-11-17T05:45:35.994Z,16.20
2023-11-17T05:48:03.732Z,16.98
2023-11-17T05:50:30.820Z,16.85
2023-11-17T05:52:57.804Z,16.58
2023-11-17T05:55:24.668Z,16.30
2023-11-17T05:57:51.773Z,17.02
2023-11-17T06:00:22.118Z,17.05
2023-11-17T06:02:49.525Z,15.95
2023-11-17T06:05:16.959Z,17.33
2023-11-17T06:07:43.936Z,15.80
2023-11-17T06:10:11.767Z,15.57
2023-11-17T06:12:38.813Z,16.92
2023-11-17T06:15:07.357Z,15.88
2023-11-17T06:17:36.359Z,16.10
2023-11-17T06:20:04.841Z,15.30
2023-11-17T06:22:31.818Z,16.02
2023-11-17T06:24:58.628Z,15.43
2023-11-17T06:27:25.636Z,15.75
2023-11-17T06:29:52.429Z,16.15
2023-11-17T06:32:19.399Z,15.75
2023-11-17T06:34:47.704Z,15.00
2023-11-17T06:37:14.649Z,14.63
2023-11-17T06:39:41.444Z,16.23
2023-11-17T06:42:09.034Z,15.70
2023-11-17T06:44:36.404Z,14.88
2023-11-17T06:47:07.689Z,16.38
2023-11-17T06:49:34.854Z,14.73
2023-11-17T06:52:03.108Z,15.20
2023-11-17T06:54:30.835Z,14.95
2023-11-17T06:56:57.692Z,16.02
2023-11-17T06:59:24.452Z,16.00
2023-11-17T07:01:51.902Z,16.00
2023-11-17T07:04:20.372Z,15.30
2023-11-17T07:06:49.042Z,16.27
2023-11-17T07:09:20.981Z,14.75
2023-11-17T07:11:51.162Z,15.82
2023-11-17T07:14:21.246Z,15.40
2023-11-17T07:16:51.716Z,15.27
2023-11-17T07:19:19.584Z,16.00
2023-11-17T07:21:48.181Z,15.20
2023-11-17T07:24:16.599Z,14.93
2023-11-17T07:26:45.997Z,14.60
2023-11-17T07:29:14.358Z,15.05
2023-11-17T07:31:45.797Z,14.10
2023-11-17T07:34:21.578Z,14.98
2023-11-17T07:36:49.391Z,14.98
2023-11-17T07:39:20.682Z,15.63
2023-11-17T07:41:48.448Z,14.68
2023-11-17T07:44:15.653Z,15.45
2023-11-17T07:46:43.463Z,15.73
2023-11-17T07:49:13.726Z,15.85
2023-11-17T07:51:40.765Z,16.17
2023-11-17T07:54:13.058Z,16.27
2023-11-17T07:56:41.660Z,17.05
2023-11-17T07:59:12.023Z,16.85
2023-11-17T08:01:40.536Z,17.75
2023-11-17T08:04:09.856Z,16.88
2023-11-17T08:06:37.753Z,17.38
2023-11-17T08:09:05.604Z,17.83
2023-11-17T08:11:32.463Z,17.38
2023-11-17T08:13:59.290Z,19.15
2023-11-17T08:16:27.947Z,18.50
2023-11-17T08:18:54.964Z,18.58
2023-11-17T08:21:22.219Z,19.55
2023-11-17T08:23:49.267Z,19.60
2023-11-17T08:26:17.140Z,19.88
2023-11-17T08:28:44.019Z,19.52
2023-11-17T08:31:16.005Z,19.92
2023-11-17T08:33:44.342Z,21.05
2023-11-17T08:36:12.092Z,20.50
2023-11-17T08:38:42.833Z,20.92
2023-11-17T08:41:13.202Z,21.67
2023-11-17T08:43:41.073Z,22.35
2023-11-17T08:46:08.791Z,23.27
2023-11-17T08:48:39.239Z,22.95
2023-11-17T08:51:06.293Z,22.17
2023-11-17T08:53:33.074Z,22.58
2023-11-17T08:56:02.577Z,23.13
2023-11-17T08:58:29.776Z,23.67
2023-11-17T09:00:59.040Z,23.05
2023-11-17T09:03:26.131Z,22.45
2023-11-17T09:05:53.084Z,23.58
2023-11-17T09:08:20.004Z,21.48
2023-11-17T09:10:49.243Z,24.13
2023-11-17T09:13:17.963Z,24.27
2023-11-17T09:15:46.572Z,23.15
2023-11-17T09:18:14.915Z,22.77
2023-11-17T09:20:41.891Z,24.08
2023-11-17T09:23:08.660Z,23.25
2023-11-17T09:25:35.744Z,22.70
2023-11-17T09:28:04.016Z,23.42
2023-11-17T09:30:34.168Z,23.13
2023-11-17T09:33:04.033Z,21.95
2023-11-17T09:35:33.390Z,23.00
2023-11-17T09:38:02.190Z,22.55
2023-11-17T09:40:38.032Z,21.95
2023-11-17T09:43:24.654Z,22.17
2023-11-17T09:46:00.652Z,21.48
2023-11-17T09:48:29.628Z,20.80
2023-11-17T09:50:57.602Z,19.70
2023-11-17T09:53:25.007Z,19.65
2023-11-17T09:55:54.983Z,19.02
2023-11-17T09:58:22.212Z,15.70
2023-11-17T10:00:50.076Z,14.52
2023-11-17T10:03:20.499Z,13.10
2023-11-17T10:05:49.185Z,14.20
2023-11-17T10:08:17.957Z,11.00
2023-11-17T10:10:46.671Z,9.65
2023-11-17T10:13:15.021Z,8.63
2023-11-17T10:15:45.778Z,8.13
2023-11-17T10:18:21.492Z,6.93
2023-11-17T10:20:48.695Z,6.97
2023-11-17T10:23:15.923Z,7.07
2023-11-17T10:25:44.616Z,6.78
2023-11-17T10:28:11.902Z,6.15
2023-11-17T10:30:39.140Z,5.68
2023-11-17T10:33:15.977Z,5.25
2023-11-17T10:35:44.885Z,5.57
2023-11-17T10:38:16.384Z,5.63
2023-11-17T10:40:43.219Z,5.97
2023-11-17T10:43:12.832Z,6.13
2023-11-17T10:45:40.725Z,6.30
2023-11-17T10:48:08.875Z,6.85
2023-11-17T10:50:36.460Z,7.13
2023-11-17T10:53:21.302Z,5.80
2023-11-17T10:55:49.906Z,5.68
2023-11-17T10:58:17.120Z,5.70
2023-11-17T11:00:49.397Z,5.75
2023-11-17T11:03:17.560Z,5.28
2023-11-17T11:05:46.250Z,4.72
2023-11-17T11:08:18.957Z,4.43
2023-11-17T11:10:54.995Z,4.95
2023-11-17T11:13:31.623Z,5.00
2023-11-17T11:16:08.665Z,4.22
2023-11-17T11:18:56.336Z,3.83
2023-11-17T11:21:23.615Z,3.95
2023-11-17T11:23:51.352Z,4.32
2023-11-17T11:26:18.937Z,4.07
2023-11-17T11:28:46.608Z,3.00
2023-11-17T11:31:16.099Z,3.33
2023-11-17T11:33:43.401Z,3.28
2023-11-17T11:36:13.529Z,3.00
2023-11-17T11:38:41.128Z,2.50
2023-11-17T11:41:16.912Z,2.47
2023-11-17T11:43:47.466Z,2.47
2023-11-17T11:46:20.198Z,2.22
2023-11-17T11:48:52.527Z,2.35
2023-11-17T11:51:24.716Z,2.20
2023-11-17T11:53:56.039Z,2.90
2023-11-17T11:56:32.394Z,2.85
2023-11-17T11:59:00.018Z,2.63
2023-11-17T12:01:33.696Z,2.80
2023-11-17T12:04:11.597Z,2.92
2023-11-17T12:06:43.594Z,2.75
2023-11-17T12:09:21.752Z,3.03
2023-11-17T12:11:53.102Z,2.97
2023-11-17T12:14:30.515Z,2.85
2023-11-17T12:16:59.922Z,2.60
2023-11-17T12:19:34.167Z,2.33
2023-11-17T12:22:05.267Z,1.80
2023-11-17T12:24:36.375Z,1.70
2023-11-17T12:29:36.653Z,2.40
2023-11-17T12:32:09.634Z,1.90
2023-11-17T12:34:46.496Z,1.40
2023-11-17T12:37:15.684Z,1.10
2023-11-17T12:39:46.036Z,1.50
2023-11-17T12:42:18.733Z,1.88
2023-11-17T12:44:46.176Z,1.80
2023-11-17T12:47:22.456Z,2.00
2023-11-17T12:49:57.291Z,2.00
2023-11-17T12:52:24.746Z,2.08
2023-11-17T12:55:10.856Z,2.30
2023-11-17T12:57:38.735Z,2.13
2023-11-17T13:00:15.194Z,2.08
2023-11-17T13:02:42.618Z,2.80
2023-11-17T13:05:13.127Z,2.60
2023-11-17T13:07:40.617Z,2.90
2023-11-17T13:10:12.329Z,2.83
2023-11-17T13:12:40.333Z,2.88
2023-11-17T13:15:11.795Z,2.85
2023-11-17T13:17:38.682Z,3.20
2023-11-17T13:20:15.125Z,2.90
2023-11-17T13:22:47.142Z,2.80
2023-11-17T13:27:44.104Z,3.00
2023-11-17T13:30:14.298Z,2.70
2023-11-17T13:33:09.469Z,2.20
2023-11-17T13:35:38.700Z,2.50
2023-11-17T13:38:05.941Z,2.33
2023-11-17T13:40:35.273Z,2.22
2023-11-17T13:43:12.656Z,1.85
2023-11-17T13:45:40.718Z,1.70
2023-11-17T13:48:12.038Z,1.48
2023-11-17T13:50:53.476Z,1.50
2023-11-17T13:53:23.173Z,1.40
2023-11-17T13:55:54.198Z,1.13
2023-11-17T13:58:21.581Z,1.13
2023-11-17T14:00:49.046Z,1.17
2023-11-17T14:03:15.999Z,1.33
2023-11-17T14:05:43.630Z,1.10
2023-11-17T14:08:12.849Z,1.40
2023-11-17T14:10:39.934Z,1.20
2023-11-17T14:13:07.352Z,1.20
2023-11-17T14:15:43.444Z,1.50
2023-11-17T14:18:18.714Z,1.47
2023-11-17T14:20:45.890Z,1.00
2023-11-17T14:23:12.677Z,1.50
2023-11-17T14:25:39.553Z,1.48
2023-11-17T14:28:06.387Z,1.52
2023-11-17T14:30:33.366Z,1.60
2023-11-17T14:33:03.112Z,1.50
2023-11-17T14:35:30.100Z,1.55
2023-11-17T14:37:57.016Z,1.60
2023-11-17T14:40:24.302Z,1.25
2023-11-17T14:42:52.693Z,1.50
2023-11-17T14:45:21.646Z,1.38
2023-11-17T14:47:49.320Z,1.70
2023-11-17T14:50:18.130Z,1.50
2023-11-17T14:52:44.983Z,1.70
2023-11-17T14:55:12.067Z,1.48
2023-11-17T14:57:39.978Z,1.50
2023-11-17T15:00:21.072Z,1.70
2023-11-17T15:02:48.951Z,1.50
2023-11-17T15:05:20.446Z,1.70
2023-11-17T15:07:50.901Z,1.30
2023-11-17T15:10:19.862Z,1.65
2023-11-17T15:12:48.757Z,1.58
2023-11-17T15:15:36.087Z,1.65
2023-11-17T15:18:09.330Z,1.63
2023-11-17T15:20:36.230Z,1.75
2023-11-17T15:23:06.486Z,1.55
2023-11-17T15:25:37.369Z,1.50
2023-11-17T15:28:14.009Z,1.40
2023-11-17T15:30:47.323Z,1.75
2023-11-17T15:33:15.465Z,1.60
2023-11-17T15:35:42.347Z,1.52
2023-11-17T15:38:09.114Z,1.60
2023-11-17T15:40:37.363Z,1.67
2023-11-17T15:43:15.366Z,1.90
2023-11-17T15:45:43.461Z,2.00
2023-11-17T15:48:12.542Z,2.00
2023-11-17T15:50:39.800Z,1.75
2023-11-17T15:53:06.720Z,2.33
2023-11-17T15:55:33.658Z,13.35
2023-11-17T15:58:00.851Z,4.72
2023-11-17T16:00:27.746Z,3.08
2023-11-17T16:02:54.729Z,4.38
2023-11-17T16:05:23.099Z,8.82
2023-11-17T16:07:52.553Z,5.47
2023-11-17T16:10:23.720Z,13.90
2023-11-17T16:12:52.178Z,8.02
2023-11-17T16:15:19.791Z,10.73
2023-11-17T16:17:47.700Z,13.32
2023-11-17T16:20:15.638Z,22.45
2023-11-17T16:22:44.009Z,8.65
2023-11-17T16:25:12.247Z,6.43
2023-11-17T16:27:40.301Z,6.05
2023-11-17T16:30:14.675Z,4.10
2023-11-17T16:32:42.676Z,17.73
2023-11-17T16:35:12.626Z,3.92
2023-11-17T16:37:39.679Z,2.78
2023-11-17T16:40:13.063Z,2.75
2023-11-17T16:42:41.704Z,4.50
2023-11-17T16:45:09.810Z,4.40
2023-11-17T16:47:36.653Z,3.47
2023-11-17T16:50:07.336Z,2.88
2023-11-17T16:52:34.287Z,5.75
2023-11-17T16:55:01.181Z,5.30
2023-11-17T16:57:29.261Z,5.30
2023-11-17T16:59:56.018Z,7.90
2023-11-17T17:02:23.089Z,9.63
2023-11-17T17:04:49.938Z,6.80
2023-11-17T17:07:16.714Z,3.95
2023-11-17T17:09:45.456Z,3.47
2023-11-17T17:12:12.270Z,3.55
2023-11-17T17:14:39.052Z,3.22
2023-11-17T17:17:06.015Z,3.80
2023-11-17T17:19:35.218Z,4.15
2023-11-17T17:22:02.947Z,3.92
2023-11-17T17:24:30.322Z,4.30
2023-11-17T17:26:57.082Z,5.20
2023-11-17T17:29:24.176Z,5.60
2023-11-17T17:31:51.177Z,9.48
2023-11-17T17:34:19.689Z,7.18
2023-11-17T17:36:46.911Z,6.90
2023-11-17T17:39:17.915Z,6.60
2023-11-17T17:41:48.902Z,6.78
2023-11-17T17:44:17.201Z,6.22
2023-11-17T17:46:44.468Z,6.10
2023-11-17T17:49:11.931Z,6.00
2023-11-17T17:51:45.071Z,6.10
2023-11-17T17:54:11.895Z,6.10
2023-11-17T17:56:39.775Z,5.22
2023-11-17T17:59:06.724Z,5.40
2023-11-17T18:01:34.299Z,5.50
2023-11-17T18:04:01.272Z,6.28
2023-11-17T18:06:28.398Z,6.45
2023-11-17T18:08:55.269Z,6.88
2023-11-17T18:11:24.868Z,6.97
2023-11-17T18:13:52.110Z,7.70
2023-11-17T18:16:19.061Z,7.65
2023-11-17T18:18:46.644Z,7.43
2023-11-17T18:21:14.677Z,7.90
2023-11-17T18:23:41.525Z,30.50
2023-11-17T18:26:19.933Z,28.23
2023-11-17T18:28:54.327Z,11.25
2023-11-17T18:31:21.146Z,11.57
2023-11-17T18:33:47.952Z,12.30
2023-11-17T18:36:16.190Z,11.23
2023-11-17T18:38:42.944Z,14.43
2023-11-17T18:41:09.718Z,13.05
2023-11-17T18:43:39.973Z,13.93
2023-11-17T18:46:11.049Z,12.73
2023-11-17T18:48:40.861Z,13.18
2023-11-17T18:51:08.436Z,13.60
2023-11-17T18:53:35.974Z,13.65
2023-11-17T18:56:04.339Z,12.55
2023-11-17T18:58:31.618Z,13.45
2023-11-17T19:00:59.786Z,12.38
2023-11-17T19:03:26.603Z,12.88
2023-11-17T19:05:53.359Z,13.32
2023-11-17T19:08:20.139Z,13.45
2023-11-17T19:10:47.551Z,14.07
2023-11-17T19:13:14.503Z,13.93
2023-11-17T19:15:42.144Z,13.75
2023-11-17T19:18:09.278Z,13.82
2023-11-17T19:20:36.992Z,14.07
2023-11-17T19:23:04.585Z,13.43
2023-11-17T19:25:32.987Z,11.90
2023-11-17T19:28:00.786Z,12.68
2023-11-17T19:30:27.535Z,12.10
2023-11-17T19:32:54.828Z,12.55
2023-11-17T19:35:23.500Z,14.43
2023-11-17T19:37:51.802Z,13.70
2023-11-17T19:40:18.766Z,13.60
2023-11-17T19:42:45.993Z,14.52
2023-11-17T19:45:17.337Z,13.45
2023-11-17T19:50:18.431Z,13.35
2023-11-17T19:52:50.761Z,12.75
2023-11-17T19:55:21.589Z,13.40
2023-11-17T19:57:49.003Z,13.57
2023-11-17T20:00:23.887Z,13.25
2023-11-17T20:02:51.488Z,14.10
2023-11-17T20:05:23.008Z,14.05
2023-11-17T20:07:50.769Z,14.68
2023-11-17T20:10:17.719Z,13.05
2023-11-17T20:12:46.160Z,13.07
2023-11-17T20:15:18.753Z,13.70
2023-11-17T20:17:55.347Z,12.77
2023-11-17T20:20:26.042Z,13.05
2023-11-17T20:22:53.550Z,13.20
2023-11-17T20:25:24.520Z,12.88
2023-11-17T20:27:52.431Z,14.05
2023-11-17T20:30:21.313Z,12.50
2023-11-17T20:32:49.394Z,12.55
2023-11-17T20:35:16.321Z,13.52
2023-11-17T20:37:44.497Z,13.95
2023-11-17T20:40:15.233Z,12.20
2023-11-17T20:42:45.719Z,13.40
2023-11-17T20:45:16.170Z,13.48
2023-11-17T20:47:44.746Z,13.98
2023-11-17T20:50:21.385Z,14.15
2023-11-17T20:52:52.197Z,14.10
2023-11-17T20:55:23.691Z,17.80
2023-11-17T20:57:51.469Z,16.02
2023-11-17T21:00:21.889Z,15.18
2023-11-17T21:02:52.831Z,15.82
2023-11-17T21:05:20.635Z,14.23
2023-11-17T21:07:49.153Z,14.90
2023-11-17T21:10:20.036Z,13.50
2023-11-17T21:12:48.619Z,13.25
2023-11-17T21:15:18.391Z,14.05
2023-11-17T21:17:47.539Z,11.90
2023-11-17T21:20:15.962Z,12.95
2023-11-17T21:22:43.061Z,13.35
2023-11-17T21:25:12.503Z,12.70
2023-11-17T21:27:43.201Z,12.10
2023-11-17T21:30:18.572Z,12.95
2023-11-17T21:32:47.612Z,12.65
2023-11-17T21:35:19.567Z,13.32
2023-11-17T21:37:47.667Z,13.02
2023-11-17T21:40:15.502Z,13.32
2023-11-17T21:42:46.527Z,13.38
2023-11-17T21:45:16.598Z,13.10
2023-11-17T21:47:45.325Z,12.50
2023-11-17T21:50:13.109Z,12.85
2023-11-17T21:52:40.351Z,12.85
2023-11-17T21:55:10.634Z,12.27
2023-11-17T21:57:39.205Z,12.35
2023-11-17T22:00:12.551Z,15.52
2023-11-17T22:02:46.585Z,14.40
2023-11-17T22:05:17.506Z,14.32
2023-11-17T22:07:45.314Z,13.00
2023-11-17T22:10:13.294Z,12.77
2023-11-17T22:12:41.003Z,13.20
2023-11-17T22:15:09.933Z,13.05
2023-11-17T22:17:37.645Z,12.10
2023-11-17T22:20:06.688Z,12.43
2023-11-17T22:22:34.504Z,13.25
2023-11-17T22:25:02.056Z,13.32
2023-11-17T22:27:31.607Z,12.90
2023-11-17T22:29:58.348Z,13.02
2023-11-17T22:32:25.348Z,12.82
2023-11-17T22:34:52.324Z,15.60
2023-11-17T22:37:19.659Z,19.65
2023-11-17T22:39:46.590Z,22.88
2023-11-17T22:42:13.405Z,49.05
2023-11-17T22:44:40.981Z,58.85
2023-11-17T22:47:08.211Z,75.70
2023-11-17T22:49:37.463Z,54.55
2023-11-17T22:52:05.745Z,31.13
2023-11-17T22:54:32.898Z,20.38
2023-11-17T22:57:00.446Z,16.92
2023-11-17T22:59:27.746Z,15.18
2023-11-17T23:01:54.668Z,15.30
2023-11-17T23:04:21.531Z,14.23
2023-11-17T23:06:48.731Z,15.00
2023-11-17T23:09:16.292Z,15.02
2023-11-17T23:11:45.107Z,14.55
2023-11-17T23:14:12.159Z,14.43
2023-11-17T23:16:39.449Z,13.88
2023-11-17T23:19:14.781Z,14.48
2023-11-17T23:21:47.101Z,14.90
2023-11-17T23:24:13.911Z,14.52
2023-11-17T23:26:40.865Z,14.48
2023-11-17T23:29:07.861Z,13.45
2023-11-17T23:31:34.753Z,14.07
2023-11-17T23:34:01.680Z,13.70
2023-11-17T23:36:28.692Z,14.15
2023-11-17T23:38:55.629Z,14.65
2023-11-17T23:41:22.414Z,14.10
2023-11-17T23:43:49.289Z,14.35
2023-11-17T23:46:17.615Z,14.55
2023-11-17T23:48:44.406Z,15.40
2023-11-17T23:51:11.659Z,14.45
2023-11-17T23:53:38.410Z,15.00
2023-11-17T23:56:06.043Z,14.90
2023-11-17T23:58:33.394Z,16.70
